sensor_id;sensor_type;location;lat;lon;timestamp;temperature;humidity
56336;DHT22;42241;53.510;10.170;2023-02-23T00:01:12;8.20;99.90
56336;DHT22;42241;53.510;10.170;2023-02-23T00:03:37;8.20;99.90
56336;DHT22;42241;53.510;10.170;2023-02-23T00:06:05;8.20;99.90
56336;DHT22;42241;53.510;10.170;2023-02-23T00:08:30;8.20;99.90
56336;DHT22;42241;53.510;10.170;2023-02-23T00:11:00;8.20;99.90
56336;DHT22;42241;53.510;10.170;2023-02-23T00:13:26;8.20;99.90
56336;DHT22;42241;53.510;10.170;2023-02-23T00:15:51;8.20;99.90
56336;DHT22;42241;53.510;10.170;2023-02-23T00:18:18;8.20;99.90
56336;DHT22;42241;53.510;10.170;2023-02-23T00:20:53;8.10;99.90
56336;DHT22;42241;53.510;10.170;2023-02-23T00:23:22;8.10;99.90
56336;DHT22;42241;53.510;10.170;2023-02-23T00:25:47;8.10;99.90
56336;DHT22;42241;53.510;10.170;2023-02-23T00:28:13;8.10;99.90
56336;DHT22;42241;53.510;10.170;2023-02-23T00:30:38;8.00;99.90
56336;DHT22;42241;53.510;10.170;2023-02-23T00:33:04;8.00;99.90
56336;DHT22;42241;53.510;10.170;2023-02-23T00:35:31;8.00;99.90
56336;DHT22;42241;53.510;10.170;2023-02-23T00:37:57;8.00;99.90
56336;DHT22;42241;53.510;10.170;2023-02-23T00:40:25;8.00;99.90
56336;DHT22;42241;53.510;10.170;2023-02-23T00:42:50;8.00;99.90
56336;DHT22;42241;53.510;10.170;2023-02-23T00:45:19;8.00;99.90
56336;DHT22;42241;53.510;10.170;2023-02-23T00:47:45;8.00;99.90
56336;DHT22;42241;53.510;10.170;2023-02-23T00:50:14;8.00;99.90
56336;DHT22;42241;53.510;10.170;2023-02-23T00:52:43;8.00;99.90
56336;DHT22;42241;53.510;10.170;2023-02-23T00:55:12;8.00;99.90
56336;DHT22;42241;53.510;10.170;2023-02-23T00:57:45;8.00;99.90
56336;DHT22;42241;53.510;10.170;2023-02-23T01:00:11;7.90;99.90
56336;DHT22;42241;53.510;10.170;2023-02-23T01:02:48;7.90;99.90
56336;DHT22;42241;53.510;10.170;2023-02-23T01:05:13;7.90;99.90
56336;DHT22;42241;53.510;10.170;2023-02-23T01:07:40;7.80;99.90
56336;DHT22;42241;53.510;10.170;2023-02-23T01:10:06;7.90;99.90
56336;DHT22;42241;53.510;10.170;2023-02-23T01:12:52;7.90;99.90
56336;DHT22;42241;53.510;10.170;2023-02-23T01:15:19;7.90;99.90
56336;DHT22;42241;53.510;10.170;2023-02-23T01:17:47;7.90;99.90
56336;DHT22;42241;53.510;10.170;2023-02-23T01:20:13;7.90;99.90
56336;DHT22;42241;53.510;10.170;2023-02-23T01:22:47;7.80;99.90
56336;DHT22;42241;53.510;10.170;2023-02-23T01:25:18;7.90;99.90
56336;DHT22;42241;53.510;10.170;2023-02-23T01:27:43;7.80;99.90
56336;DHT22;42241;53.510;10.170;2023-02-23T01:30:10;7.80;99.90
56336;DHT22;42241;53.510;10.170;2023-02-23T01:32:36;7.90;99.90
56336;DHT22;42241;53.510;10.170;2023-02-23T01:35:08;7.80;99.90
56336;DHT22;42241;53.510;10.170;2023-02-23T01:37:37;7.90;99.90
56336;DHT22;42241;53.510;10.170;2023-02-23T01:40:05;7.90;99.90
56336;DHT22;42241;53.510;10.170;2023-02-23T01:42:37;7.90;99.90
56336;DHT22;42241;53.510;10.170;2023-02-23T01:45:17;7.90;99.90
56336;DHT22;42241;53.510;10.170;2023-02-23T01:47:43;7.90;99.90
56336;DHT22;42241;53.510;10.170;2023-02-23T01:50:09;7.80;99.90
56336;DHT22;42241;53.510;10.170;2023-02-23T01:52:38;7.90;99.90
56336;DHT22;42241;53.510;10.170;2023-02-23T01:55:04;7.80;99.90
56336;DHT22;42241;53.510;10.170;2023-02-23T01:57:30;7.80;99.90
56336;DHT22;42241;53.510;10.170;2023-02-23T01:59:56;7.80;99.90
56336;DHT22;42241;53.510;10.170;2023-02-23T02:02:22;7.80;99.90
56336;DHT22;42241;53.510;10.170;2023-02-23T02:04:57;7.80;99.90
56336;DHT22;42241;53.510;10.170;2023-02-23T02:07:26;7.80;99.90
56336;DHT22;42241;53.510;10.170;2023-02-23T02:09:53;7.80;99.90
56336;DHT22;42241;53.510;10.170;2023-02-23T02:12:53;7.80;99.90
56336;DHT22;42241;53.510;10.170;2023-02-23T02:15:21;7.80;99.90
56336;DHT22;42241;53.510;10.170;2023-02-23T02:44:04;7.80;99.90
56336;DHT22;42241;53.510;10.170;2023-02-23T02:46:28;7.80;99.90
56336;DHT22;42241;53.510;10.170;2023-02-23T02:49:10;7.80;99.90
56336;DHT22;42241;53.510;10.170;2023-02-23T02:56:31;7.90;99.90
56336;DHT22;42241;53.510;10.170;2023-02-23T02:59:14;7.80;99.90
56336;DHT22;42241;53.510;10.170;2023-02-23T03:01:59;7.80;99.90
56336;DHT22;42241;53.510;10.170;2023-02-23T03:04:43;7.80;99.90
56336;DHT22;42241;53.510;10.170;2023-02-23T03:13:16;7.70;99.90
56336;DHT22;42241;53.510;10.170;2023-02-23T03:31:34;7.50;99.90
56336;DHT22;42241;53.510;10.170;2023-02-23T03:33:51;7.50;99.90
56336;DHT22;42241;53.510;10.170;2023-02-23T03:36:38;7.50;99.90
56336;DHT22;42241;53.510;10.170;2023-02-23T03:39:34;7.50;99.90
56336;DHT22;42241;53.510;10.170;2023-02-23T03:42:20;7.50;99.90
56336;DHT22;42241;53.510;10.170;2023-02-23T03:45:09;7.60;99.90
56336;DHT22;42241;53.510;10.170;2023-02-23T03:47:54;7.70;99.90
56336;DHT22;42241;53.510;10.170;2023-02-23T03:50:42;7.70;99.90
56336;DHT22;42241;53.510;10.170;2023-02-23T03:53:28;7.70;99.90
56336;DHT22;42241;53.510;10.170;2023-02-23T03:56:15;7.70;99.90
56336;DHT22;42241;53.510;10.170;2023-02-23T03:59:03;7.80;99.90
56336;DHT22;42241;53.510;10.170;2023-02-23T04:01:51;7.80;99.90
56336;DHT22;42241;53.510;10.170;2023-02-23T04:04:37;7.80;99.90
56336;DHT22;42241;53.510;10.170;2023-02-23T04:07:22;7.80;99.90
56336;DHT22;42241;53.510;10.170;2023-02-23T04:10:07;7.80;99.90
56336;DHT22;42241;53.510;10.170;2023-02-23T04:12:54;7.80;99.90
56336;DHT22;42241;53.510;10.170;2023-02-23T04:15:53;7.80;99.90
56336;DHT22;42241;53.510;10.170;2023-02-23T04:18:23;7.70;99.90
56336;DHT22;42241;53.510;10.170;2023-02-23T04:20:52;7.60;99.90
56336;DHT22;42241;53.510;10.170;2023-02-23T04:23:20;7.60;99.90
56336;DHT22;42241;53.510;10.170;2023-02-23T04:25:47;7.50;99.90
56336;DHT22;42241;53.510;10.170;2023-02-23T04:28:15;7.50;99.90
56336;DHT22;42241;53.510;10.170;2023-02-23T04:30:43;7.50;99.90
56336;DHT22;42241;53.510;10.170;2023-02-23T04:33:09;7.50;99.90
56336;DHT22;42241;53.510;10.170;2023-02-23T04:35:34;7.50;99.90
56336;DHT22;42241;53.510;10.170;2023-02-23T04:38:00;7.50;99.90
56336;DHT22;42241;53.510;10.170;2023-02-23T04:40:28;7.50;99.90
56336;DHT22;42241;53.510;10.170;2023-02-23T04:42:54;7.50;99.90
56336;DHT22;42241;53.510;10.170;2023-02-23T04:45:22;7.50;99.90
56336;DHT22;42241;53.510;10.170;2023-02-23T04:47:50;7.60;99.90
56336;DHT22;42241;53.510;10.170;2023-02-23T04:50:19;7.70;99.90
56336;DHT22;42241;53.510;10.170;2023-02-23T04:52:44;7.70;99.90
56336;DHT22;42241;53.510;10.170;2023-02-23T04:55:14;7.70;99.90
56336;DHT22;42241;53.510;10.170;2023-02-23T04:57:40;7.70;99.90
56336;DHT22;42241;53.510;10.170;2023-02-23T05:00:06;7.70;99.90
56336;DHT22;42241;53.510;10.170;2023-02-23T05:02:31;7.80;99.90
56336;DHT22;42241;53.510;10.170;2023-02-23T05:04:57;7.70;99.90
56336;DHT22;42241;53.510;10.170;2023-02-23T05:07:22;7.70;99.90
56336;DHT22;42241;53.510;10.170;2023-02-23T05:09:48;7.70;99.90
56336;DHT22;42241;53.510;10.170;2023-02-23T05:12:14;7.70;99.90
56336;DHT22;42241;53.510;10.170;2023-02-23T05:14:41;7.80;99.90
56336;DHT22;42241;53.510;10.170;2023-02-23T05:17:07;7.80;99.90
56336;DHT22;42241;53.510;10.170;2023-02-23T05:19:35;7.90;99.90
56336;DHT22;42241;53.510;10.170;2023-02-23T05:22:01;7.80;99.90
56336;DHT22;42241;53.510;10.170;2023-02-23T05:24:27;7.80;99.90
56336;DHT22;42241;53.510;10.170;2023-02-23T05:26:52;7.70;99.90
56336;DHT22;42241;53.510;10.170;2023-02-23T05:29:20;7.80;99.90
56336;DHT22;42241;53.510;10.170;2023-02-23T05:31:48;7.70;99.90
56336;DHT22;42241;53.510;10.170;2023-02-23T05:34:14;7.80;99.90
56336;DHT22;42241;53.510;10.170;2023-02-23T05:36:41;7.80;99.90
56336;DHT22;42241;53.510;10.170;2023-02-23T05:39:09;7.80;99.90
56336;DHT22;42241;53.510;10.170;2023-02-23T05:41:34;7.70;99.90
56336;DHT22;42241;53.510;10.170;2023-02-23T05:44:05;7.70;99.90
56336;DHT22;42241;53.510;10.170;2023-02-23T05:46:33;7.70;99.90
56336;DHT22;42241;53.510;10.170;2023-02-23T05:48:59;7.60;99.90
56336;DHT22;42241;53.510;10.170;2023-02-23T05:51:28;7.70;99.90
56336;DHT22;42241;53.510;10.170;2023-02-23T05:53:56;7.70;99.90
56336;DHT22;42241;53.510;10.170;2023-02-23T05:56:23;7.70;99.90
56336;DHT22;42241;53.510;10.170;2023-02-23T05:58:57;7.60;99.90
56336;DHT22;42241;53.510;10.170;2023-02-23T06:01:25;7.60;99.90
56336;DHT22;42241;53.510;10.170;2023-02-23T06:03:51;7.60;99.90
56336;DHT22;42241;53.510;10.170;2023-02-23T06:06:18;7.60;99.90
56336;DHT22;42241;53.510;10.170;2023-02-23T06:08:44;7.50;99.90
56336;DHT22;42241;53.510;10.170;2023-02-23T06:11:10;7.50;99.90
56336;DHT22;42241;53.510;10.170;2023-02-23T06:13:35;7.50;99.90
56336;DHT22;42241;53.510;10.170;2023-02-23T06:16:01;7.40;99.90
56336;DHT22;42241;53.510;10.170;2023-02-23T06:18:27;7.50;99.90
56336;DHT22;42241;53.510;10.170;2023-02-23T06:20:57;7.50;99.90
56336;DHT22;42241;53.510;10.170;2023-02-23T06:23:27;7.50;99.90
56336;DHT22;42241;53.510;10.170;2023-02-23T06:25:55;7.50;99.90
56336;DHT22;42241;53.510;10.170;2023-02-23T06:28:22;7.40;99.90
56336;DHT22;42241;53.510;10.170;2023-02-23T06:30:50;7.40;99.90
56336;DHT22;42241;53.510;10.170;2023-02-23T06:33:15;7.50;99.90
56336;DHT22;42241;53.510;10.170;2023-02-23T06:35:41;7.50;99.90
56336;DHT22;42241;53.510;10.170;2023-02-23T06:38:11;7.50;99.90
56336;DHT22;42241;53.510;10.170;2023-02-23T06:40:41;7.60;99.90
56336;DHT22;42241;53.510;10.170;2023-02-23T06:43:07;7.50;99.90
56336;DHT22;42241;53.510;10.170;2023-02-23T06:45:33;7.50;99.90
56336;DHT22;42241;53.510;10.170;2023-02-23T06:47:58;7.60;99.90
56336;DHT22;42241;53.510;10.170;2023-02-23T06:50:25;7.60;99.90
56336;DHT22;42241;53.510;10.170;2023-02-23T06:52:53;7.70;99.90
56336;DHT22;42241;53.510;10.170;2023-02-23T06:55:20;7.70;99.90
56336;DHT22;42241;53.510;10.170;2023-02-23T06:57:47;7.70;99.90
56336;DHT22;42241;53.510;10.170;2023-02-23T07:00:13;7.70;99.90
56336;DHT22;42241;53.510;10.170;2023-02-23T07:02:39;7.70;99.90
56336;DHT22;42241;53.510;10.170;2023-02-23T07:05:05;7.70;99.90
56336;DHT22;42241;53.510;10.170;2023-02-23T07:07:30;7.50;99.90
56336;DHT22;42241;53.510;10.170;2023-02-23T07:09:57;7.40;99.90
56336;DHT22;42241;53.510;10.170;2023-02-23T07:12:22;7.40;99.90
56336;DHT22;42241;53.510;10.170;2023-02-23T07:14:48;7.40;99.90
56336;DHT22;42241;53.510;10.170;2023-02-23T07:17:13;7.50;99.90
56336;DHT22;42241;53.510;10.170;2023-02-23T07:19:39;7.40;99.90
56336;DHT22;42241;53.510;10.170;2023-02-23T07:22:04;7.30;99.90
56336;DHT22;42241;53.510;10.170;2023-02-23T07:24:34;7.30;99.90
56336;DHT22;42241;53.510;10.170;2023-02-23T07:27:02;7.40;99.90
56336;DHT22;42241;53.510;10.170;2023-02-23T07:29:28;7.50;99.90
56336;DHT22;42241;53.510;10.170;2023-02-23T07:31:54;7.50;99.90
56336;DHT22;42241;53.510;10.170;2023-02-23T07:34:19;7.50;99.90
56336;DHT22;42241;53.510;10.170;2023-02-23T07:36:50;7.60;99.90
56336;DHT22;42241;53.510;10.170;2023-02-23T07:39:15;7.50;99.90
56336;DHT22;42241;53.510;10.170;2023-02-23T07:41:43;7.40;99.90
56336;DHT22;42241;53.510;10.170;2023-02-23T07:44:09;7.50;99.90
56336;DHT22;42241;53.510;10.170;2023-02-23T07:46:37;7.50;99.90
56336;DHT22;42241;53.510;10.170;2023-02-23T07:49:06;7.60;99.90
56336;DHT22;42241;53.510;10.170;2023-02-23T07:51:32;7.70;99.90
56336;DHT22;42241;53.510;10.170;2023-02-23T07:54:03;7.60;99.90
56336;DHT22;42241;53.510;10.170;2023-02-23T07:56:31;7.70;99.90
56336;DHT22;42241;53.510;10.170;2023-02-23T07:58:59;7.70;99.90
56336;DHT22;42241;53.510;10.170;2023-02-23T08:01:25;7.70;99.90
56336;DHT22;42241;53.510;10.170;2023-02-23T08:03:53;7.70;99.90
56336;DHT22;42241;53.510;10.170;2023-02-23T08:06:21;7.70;99.90
56336;DHT22;42241;53.510;10.170;2023-02-23T08:08:49;7.80;99.90
56336;DHT22;42241;53.510;10.170;2023-02-23T08:11:17;7.80;99.90
56336;DHT22;42241;53.510;10.170;2023-02-23T08:13:42;7.90;99.90
56336;DHT22;42241;53.510;10.170;2023-02-23T08:16:08;7.90;99.90
56336;DHT22;42241;53.510;10.170;2023-02-23T08:18:40;7.90;99.90
56336;DHT22;42241;53.510;10.170;2023-02-23T08:21:08;7.90;99.90
56336;DHT22;42241;53.510;10.170;2023-02-23T08:23:33;7.90;99.90
56336;DHT22;42241;53.510;10.170;2023-02-23T08:25:59;8.00;99.90
56336;DHT22;42241;53.510;10.170;2023-02-23T08:28:25;8.00;99.90
56336;DHT22;42241;53.510;10.170;2023-02-23T08:30:56;8.00;99.90
56336;DHT22;42241;53.510;10.170;2023-02-23T08:33:23;8.00;99.90
56336;DHT22;42241;53.510;10.170;2023-02-23T08:35:48;8.00;99.90
56336;DHT22;42241;53.510;10.170;2023-02-23T08:38:14;8.00;99.90
56336;DHT22;42241;53.510;10.170;2023-02-23T08:40:40;8.00;99.90
56336;DHT22;42241;53.510;10.170;2023-02-23T08:43:08;8.10;99.90
56336;DHT22;42241;53.510;10.170;2023-02-23T08:45:34;8.10;99.90
56336;DHT22;42241;53.510;10.170;2023-02-23T08:47:59;8.20;99.90
56336;DHT22;42241;53.510;10.170;2023-02-23T08:50:25;8.20;99.90
56336;DHT22;42241;53.510;10.170;2023-02-23T08:52:50;8.30;99.90
56336;DHT22;42241;53.510;10.170;2023-02-23T08:55:16;8.30;99.90
56336;DHT22;42241;53.510;10.170;2023-02-23T08:57:45;8.30;99.90
56336;DHT22;42241;53.510;10.170;2023-02-23T09:00:11;8.30;99.90
56336;DHT22;42241;53.510;10.170;2023-02-23T09:02:41;8.30;99.90
56336;DHT22;42241;53.510;10.170;2023-02-23T09:05:07;8.40;99.90
56336;DHT22;42241;53.510;10.170;2023-02-23T09:07:33;8.40;99.90
56336;DHT22;42241;53.510;10.170;2023-02-23T09:09:58;8.40;99.90
56336;DHT22;42241;53.510;10.170;2023-02-23T09:12:26;8.40;99.90
56336;DHT22;42241;53.510;10.170;2023-02-23T09:14:55;8.40;99.90
56336;DHT22;42241;53.510;10.170;2023-02-23T09:17:20;8.40;99.90
56336;DHT22;42241;53.510;10.170;2023-02-23T09:19:47;8.50;99.90
56336;DHT22;42241;53.510;10.170;2023-02-23T09:22:13;8.50;99.90
56336;DHT22;42241;53.510;10.170;2023-02-23T09:24:38;8.50;99.90
56336;DHT22;42241;53.510;10.170;2023-02-23T09:27:04;8.50;99.90
56336;DHT22;42241;53.510;10.170;2023-02-23T09:29:33;8.50;99.90
56336;DHT22;42241;53.510;10.170;2023-02-23T09:32:02;8.50;99.90
56336;DHT22;42241;53.510;10.170;2023-02-23T09:34:28;8.50;99.90
56336;DHT22;42241;53.510;10.170;2023-02-23T09:36:59;8.50;99.90
56336;DHT22;42241;53.510;10.170;2023-02-23T09:39:29;8.60;99.90
56336;DHT22;42241;53.510;10.170;2023-02-23T09:42:14;8.60;99.90
56336;DHT22;42241;53.510;10.170;2023-02-23T09:49:44;8.70;99.90
56336;DHT22;42241;53.510;10.170;2023-02-23T09:52:14;8.60;99.90
56336;DHT22;42241;53.510;10.170;2023-02-23T09:54:40;8.60;99.90
56336;DHT22;42241;53.510;10.170;2023-02-23T09:57:09;8.60;99.90
56336;DHT22;42241;53.510;10.170;2023-02-23T09:59:36;8.50;99.90
56336;DHT22;42241;53.510;10.170;2023-02-23T10:02:22;8.60;99.90
56336;DHT22;42241;53.510;10.170;2023-02-23T10:04:55;8.50;99.90
56336;DHT22;42241;53.510;10.170;2023-02-23T10:12:33;8.40;99.90
56336;DHT22;42241;53.510;10.170;2023-02-23T10:15:14;8.30;99.90
56336;DHT22;42241;53.510;10.170;2023-02-23T10:20:43;8.40;99.90
56336;DHT22;42241;53.510;10.170;2023-02-23T10:25:56;8.40;99.90
56336;DHT22;42241;53.510;10.170;2023-02-23T10:28:26;8.40;99.90
56336;DHT22;42241;53.510;10.170;2023-02-23T10:30:53;8.40;99.90
56336;DHT22;42241;53.510;10.170;2023-02-23T10:33:39;8.40;99.90
56336;DHT22;42241;53.510;10.170;2023-02-23T10:38:57;8.50;99.90
56336;DHT22;42241;53.510;10.170;2023-02-23T10:41:22;8.50;99.90
56336;DHT22;42241;53.510;10.170;2023-02-23T10:43:48;8.70;99.90
56336;DHT22;42241;53.510;10.170;2023-02-23T10:46:34;8.80;99.90
56336;DHT22;42241;53.510;10.170;2023-02-23T10:49:03;8.80;99.90
56336;DHT22;42241;53.510;10.170;2023-02-23T10:51:32;8.80;99.90
56336;DHT22;42241;53.510;10.170;2023-02-23T10:54:01;8.90;99.90
56336;DHT22;42241;53.510;10.170;2023-02-23T10:56:51;8.90;99.90
56336;DHT22;42241;53.510;10.170;2023-02-23T10:59:18;9.00;99.90
56336;DHT22;42241;53.510;10.170;2023-02-23T11:01:44;9.10;99.90
56336;DHT22;42241;53.510;10.170;2023-02-23T11:06:40;9.10;99.90
56336;DHT22;42241;53.510;10.170;2023-02-23T11:14:30;9.00;99.90
56336;DHT22;42241;53.510;10.170;2023-02-23T11:16:56;8.90;99.90
56336;DHT22;42241;53.510;10.170;2023-02-23T11:19:35;8.80;99.90
56336;DHT22;42241;53.510;10.170;2023-02-23T11:22:02;8.80;99.90
56336;DHT22;42241;53.510;10.170;2023-02-23T11:24:31;8.70;99.90
56336;DHT22;42241;53.510;10.170;2023-02-23T11:26:58;8.60;99.90
56336;DHT22;42241;53.510;10.170;2023-02-23T11:31:54;8.50;99.90
56336;DHT22;42241;53.510;10.170;2023-02-23T11:34:34;8.60;99.90
56336;DHT22;42241;53.510;10.170;2023-02-23T11:37:04;8.60;99.90
56336;DHT22;42241;53.510;10.170;2023-02-23T11:39:33;8.60;99.90
56336;DHT22;42241;53.510;10.170;2023-02-23T11:42:21;8.50;99.90
56336;DHT22;42241;53.510;10.170;2023-02-23T11:44:51;8.40;99.90
56336;DHT22;42241;53.510;10.170;2023-02-23T11:47:26;8.40;99.90
56336;DHT22;42241;53.510;10.170;2023-02-23T11:49:52;8.30;99.90
56336;DHT22;42241;53.510;10.170;2023-02-23T11:52:19;8.30;99.90
56336;DHT22;42241;53.510;10.170;2023-02-23T11:55:04;8.40;99.90
56336;DHT22;42241;53.510;10.170;2023-02-23T11:57:33;8.60;99.90
56336;DHT22;42241;53.510;10.170;2023-02-23T12:00:08;8.80;99.90
56336;DHT22;42241;53.510;10.170;2023-02-23T12:02:34;8.90;99.90
56336;DHT22;42241;53.510;10.170;2023-02-23T12:05:17;9.10;99.90
56336;DHT22;42241;53.510;10.170;2023-02-23T12:07:50;9.20;99.90
56336;DHT22;42241;53.510;10.170;2023-02-23T12:15:18;9.60;99.90
56336;DHT22;42241;53.510;10.170;2023-02-23T12:17:48;9.50;99.90
56336;DHT22;42241;53.510;10.170;2023-02-23T12:20:28;9.50;99.90
56336;DHT22;42241;53.510;10.170;2023-02-23T12:23:17;9.50;99.90
56336;DHT22;42241;53.510;10.170;2023-02-23T12:33:44;9.60;99.90
56336;DHT22;42241;53.510;10.170;2023-02-23T12:41:15;9.30;99.90
56336;DHT22;42241;53.510;10.170;2023-02-23T12:43:47;9.20;99.90
56336;DHT22;42241;53.510;10.170;2023-02-23T12:49:05;9.20;99.90
56336;DHT22;42241;53.510;10.170;2023-02-23T12:52:01;9.10;99.90
56336;DHT22;42241;53.510;10.170;2023-02-23T12:54:23;9.10;99.90
56336;DHT22;42241;53.510;10.170;2023-02-23T13:02:00;9.10;99.90
56336;DHT22;42241;53.510;10.170;2023-02-23T13:12:18;9.00;99.90
56336;DHT22;42241;53.510;10.170;2023-02-23T13:14:55;9.00;99.90
56336;DHT22;42241;53.510;10.170;2023-02-23T13:17:32;9.00;99.90
56336;DHT22;42241;53.510;10.170;2023-02-23T13:20:20;9.00;99.90
56336;DHT22;42241;53.510;10.170;2023-02-23T13:23:09;8.90;99.90
56336;DHT22;42241;53.510;10.170;2023-02-23T13:25:58;8.90;99.90
56336;DHT22;42241;53.510;10.170;2023-02-23T13:28:44;8.90;99.90
56336;DHT22;42241;53.510;10.170;2023-02-23T13:31:16;8.80;99.90
56336;DHT22;42241;53.510;10.170;2023-02-23T13:33:46;8.80;99.90
56336;DHT22;42241;53.510;10.170;2023-02-23T13:36:16;8.80;99.90
56336;DHT22;42241;53.510;10.170;2023-02-23T13:43:48;8.80;99.90
56336;DHT22;42241;53.510;10.170;2023-02-23T13:46:19;8.90;99.90
56336;DHT22;42241;53.510;10.170;2023-02-23T13:49:33;8.90;99.90
56336;DHT22;42241;53.510;10.170;2023-02-23T13:51:34;8.90;99.90
56336;DHT22;42241;53.510;10.170;2023-02-23T13:56:27;8.90;99.90
56336;DHT22;42241;53.510;10.170;2023-02-23T13:59:04;8.90;99.90
56336;DHT22;42241;53.510;10.170;2023-02-23T14:01:37;8.80;99.90
56336;DHT22;42241;53.510;10.170;2023-02-23T14:04:26;8.70;99.90
56336;DHT22;42241;53.510;10.170;2023-02-23T14:09:27;8.70;99.90
56336;DHT22;42241;53.510;10.170;2023-02-23T14:11:55;8.70;99.90
56336;DHT22;42241;53.510;10.170;2023-02-23T14:17:09;8.70;99.90
56336;DHT22;42241;53.510;10.170;2023-02-23T14:19:40;8.70;99.90
56336;DHT22;42241;53.510;10.170;2023-02-23T14:22:10;8.70;99.90
56336;DHT22;42241;53.510;10.170;2023-02-23T14:24:37;8.70;99.90
56336;DHT22;42241;53.510;10.170;2023-02-23T14:29:38;8.70;99.90
56336;DHT22;42241;53.510;10.170;2023-02-23T14:40:14;8.70;99.90
56336;DHT22;42241;53.510;10.170;2023-02-23T14:42:40;8.70;99.90
56336;DHT22;42241;53.510;10.170;2023-02-23T14:45:20;8.60;99.90
56336;DHT22;42241;53.510;10.170;2023-02-23T14:47:51;8.60;99.90
56336;DHT22;42241;53.510;10.170;2023-02-23T14:50:38;8.70;99.90
56336;DHT22;42241;53.510;10.170;2023-02-23T14:53:05;8.70;99.90
56336;DHT22;42241;53.510;10.170;2023-02-23T14:55:33;8.70;99.90
56336;DHT22;42241;53.510;10.170;2023-02-23T14:58:02;8.70;99.90
56336;DHT22;42241;53.510;10.170;2023-02-23T15:00:29;8.70;99.90
56336;DHT22;42241;53.510;10.170;2023-02-23T15:05:28;8.70;99.90
56336;DHT22;42241;53.510;10.170;2023-02-23T15:07:56;8.80;99.90
56336;DHT22;42241;53.510;10.170;2023-02-23T15:10:33;8.80;99.90
56336;DHT22;42241;53.510;10.170;2023-02-23T15:13:00;8.80;99.90
56336;DHT22;42241;53.510;10.170;2023-02-23T15:15:28;8.80;99.90
56336;DHT22;42241;53.510;10.170;2023-02-23T15:17:58;8.80;99.90
56336;DHT22;42241;53.510;10.170;2023-02-23T15:20:26;8.80;99.90
56336;DHT22;42241;53.510;10.170;2023-02-23T15:22:57;8.80;99.90
56336;DHT22;42241;53.510;10.170;2023-02-23T15:25:32;8.80;99.90
56336;DHT22;42241;53.510;10.170;2023-02-23T15:27:58;8.80;99.90
56336;DHT22;42241;53.510;10.170;2023-02-23T15:30:25;8.80;99.90
56336;DHT22;42241;53.510;10.170;2023-02-23T15:33:01;8.80;99.90
56336;DHT22;42241;53.510;10.170;2023-02-23T15:35:27;8.90;99.90
56336;DHT22;42241;53.510;10.170;2023-02-23T15:37:53;8.80;99.90
56336;DHT22;42241;53.510;10.170;2023-02-23T15:40:20;8.90;99.90
56336;DHT22;42241;53.510;10.170;2023-02-23T15:42:50;8.80;99.90
56336;DHT22;42241;53.510;10.170;2023-02-23T15:47:50;8.70;99.90
56336;DHT22;42241;53.510;10.170;2023-02-23T15:50:22;8.80;99.90
56336;DHT22;42241;53.510;10.170;2023-02-23T15:52:56;8.70;99.90
56336;DHT22;42241;53.510;10.170;2023-02-23T15:55:23;8.70;99.90
56336;DHT22;42241;53.510;10.170;2023-02-23T15:57:53;8.70;99.90
56336;DHT22;42241;53.510;10.170;2023-02-23T16:00:20;8.70;99.90
56336;DHT22;42241;53.510;10.170;2023-02-23T16:02:59;8.60;99.90
56336;DHT22;42241;53.510;10.170;2023-02-23T16:05:25;8.50;99.90
56336;DHT22;42241;53.510;10.170;2023-02-23T16:08:00;8.50;99.90
56336;DHT22;42241;53.510;10.170;2023-02-23T16:10:29;8.50;99.90
56336;DHT22;42241;53.510;10.170;2023-02-23T16:12:56;8.40;99.90
56336;DHT22;42241;53.510;10.170;2023-02-23T16:15:28;8.40;99.90
56336;DHT22;42241;53.510;10.170;2023-02-23T16:17:57;8.30;99.90
56336;DHT22;42241;53.510;10.170;2023-02-23T16:23:05;8.20;99.90
56336;DHT22;42241;53.510;10.170;2023-02-23T16:25:31;8.10;99.90
56336;DHT22;42241;53.510;10.170;2023-02-23T16:28:07;8.00;99.90
56336;DHT22;42241;53.510;10.170;2023-02-23T16:30:37;8.00;99.90
56336;DHT22;42241;53.510;10.170;2023-02-23T16:33:20;8.00;99.90
56336;DHT22;42241;53.510;10.170;2023-02-23T16:35:47;8.00;99.90
56336;DHT22;42241;53.510;10.170;2023-02-23T16:38:26;7.90;99.90
56336;DHT22;42241;53.510;10.170;2023-02-23T16:40:54;7.90;99.90
56336;DHT22;42241;53.510;10.170;2023-02-23T16:43:22;7.90;99.90
56336;DHT22;42241;53.510;10.170;2023-02-23T16:45:47;8.00;99.90
56336;DHT22;42241;53.510;10.170;2023-02-23T16:48:15;8.00;99.90
56336;DHT22;42241;53.510;10.170;2023-02-23T16:50:44;8.00;99.90
56336;DHT22;42241;53.510;10.170;2023-02-23T16:53:10;8.00;99.90
56336;DHT22;42241;53.510;10.170;2023-02-23T16:55:37;8.00;99.90
56336;DHT22;42241;53.510;10.170;2023-02-23T16:58:08;7.90;99.90
56336;DHT22;42241;53.510;10.170;2023-02-23T17:00:34;7.90;99.90
56336;DHT22;42241;53.510;10.170;2023-02-23T17:02:59;7.90;99.90
56336;DHT22;42241;53.510;10.170;2023-02-23T17:05:27;7.90;99.90
56336;DHT22;42241;53.510;10.170;2023-02-23T17:07:55;7.90;99.90
56336;DHT22;42241;53.510;10.170;2023-02-23T17:10:27;7.90;99.90
56336;DHT22;42241;53.510;10.170;2023-02-23T17:12:57;7.80;99.90
56336;DHT22;42241;53.510;10.170;2023-02-23T17:15:24;7.70;99.90
56336;DHT22;42241;53.510;10.170;2023-02-23T17:17:51;7.70;99.90
56336;DHT22;42241;53.510;10.170;2023-02-23T17:20:21;7.70;99.90
56336;DHT22;42241;53.510;10.170;2023-02-23T17:22:49;7.70;99.90
56336;DHT22;42241;53.510;10.170;2023-02-23T17:25:15;7.70;99.90
56336;DHT22;42241;53.510;10.170;2023-02-23T17:27:41;7.70;99.90
56336;DHT22;42241;53.510;10.170;2023-02-23T17:30:07;7.70;99.90
56336;DHT22;42241;53.510;10.170;2023-02-23T17:32:33;7.70;99.90
56336;DHT22;42241;53.510;10.170;2023-02-23T17:34:58;7.60;99.90
56336;DHT22;42241;53.510;10.170;2023-02-23T17:37:27;7.60;99.90
56336;DHT22;42241;53.510;10.170;2023-02-23T17:39:52;7.60;99.90
56336;DHT22;42241;53.510;10.170;2023-02-23T17:42:18;7.60;99.90
56336;DHT22;42241;53.510;10.170;2023-02-23T17:44:46;7.50;99.90
56336;DHT22;42241;53.510;10.170;2023-02-23T17:47:14;7.40;99.90
56336;DHT22;42241;53.510;10.170;2023-02-23T17:49:39;7.30;99.90
56336;DHT22;42241;53.510;10.170;2023-02-23T17:52:07;7.30;99.90
56336;DHT22;42241;53.510;10.170;2023-02-23T17:54:35;7.30;99.90
56336;DHT22;42241;53.510;10.170;2023-02-23T17:57:01;7.20;99.90
56336;DHT22;42241;53.510;10.170;2023-02-23T17:59:31;7.10;99.90
56336;DHT22;42241;53.510;10.170;2023-02-23T18:01:56;7.10;99.90
56336;DHT22;42241;53.510;10.170;2023-02-23T18:04:22;7.10;99.90
56336;DHT22;42241;53.510;10.170;2023-02-23T18:06:47;7.10;99.90
56336;DHT22;42241;53.510;10.170;2023-02-23T18:09:15;7.10;99.90
56336;DHT22;42241;53.510;10.170;2023-02-23T18:11:41;7.10;99.90
56336;DHT22;42241;53.510;10.170;2023-02-23T18:14:07;7.10;99.90